sensor_id;sensor_type;location;lat;lon;timestamp;pressure;altitude;pressure_sealevel;temperature;humidity
28312;BME280;15572;48.810;9.148;2023-04-30T00:02:44;98436.56;;;11.62;100.00
28312;BME280;15572;48.810;9.148;2023-04-30T00:07:40;98445.34;;;11.64;100.00
28312;BME280;15572;48.810;9.148;2023-04-30T00:12:37;98446.75;;;11.60;100.00
28312;BME280;15572;48.810;9.148;2023-04-30T00:17:35;98435.28;;;11.58;100.00
28312;BME280;15572;48.810;9.148;2023-04-30T00:22:31;98433.59;;;11.57;100.00
28312;BME280;15572;48.810;9.148;2023-04-30T00:27:28;98431.09;;;11.56;100.00
28312;BME280;15572;48.810;9.148;2023-04-30T00:32:25;98435.88;;;11.54;100.00
28312;BME280;15572;48.810;9.148;2023-04-30T00:37:23;98442.09;;;11.48;100.00
28312;BME280;15572;48.810;9.148;2023-04-30T00:42:20;98435.59;;;11.49;100.00
28312;BME280;15572;48.810;9.148;2023-04-30T00:47:16;98444.97;;;11.46;100.00
28312;BME280;15572;48.810;9.148;2023-04-30T00:52:13;98443.50;;;11.44;100.00
28312;BME280;15572;48.810;9.148;2023-04-30T00:57:11;98445.94;;;11.38;100.00
28312;BME280;15572;48.810;9.148;2023-04-30T01:02:08;98451.59;;;11.37;100.00
28312;BME280;15572;48.810;9.148;2023-04-30T01:07:05;98449.50;;;11.39;100.00
28312;BME280;15572;48.810;9.148;2023-04-30T01:12:07;98447.63;;;11.39;100.00
28312;BME280;15572;48.810;9.148;2023-04-30T01:17:11;98444.84;;;11.33;100.00
28312;BME280;15572;48.810;9.148;2023-04-30T01:22:21;98437.97;;;11.30;100.00
28312;BME280;15572;48.810;9.148;2023-04-30T01:27:31;98442.75;;;11.28;100.00
28312;BME280;15572;48.810;9.148;2023-04-30T01:32:34;98434.41;;;11.30;100.00
28312;BME280;15572;48.810;9.148;2023-04-30T01:37:37;98430.44;;;11.26;100.00
28312;BME280;15572;48.810;9.148;2023-04-30T01:42:43;98434.53;;;11.22;100.00
28312;BME280;15572;48.810;9.148;2023-04-30T01:47:47;98428.31;;;11.21;100.00
28312;BME280;15572;48.810;9.148;2023-04-30T01:52:51;98425.97;;;11.18;100.00
28312;BME280;15572;48.810;9.148;2023-04-30T01:57:52;98430.09;;;11.14;100.00
28312;BME280;15572;48.810;9.148;2023-04-30T02:02:52;98430.28;;;11.13;100.00
28312;BME280;15572;48.810;9.148;2023-04-30T02:07:50;98427.16;;;11.09;100.00
28312;BME280;15572;48.810;9.148;2023-04-30T02:12:46;98425.66;;;11.07;100.00
28312;BME280;15572;48.810;9.148;2023-04-30T02:17:43;98416.06;;;11.04;100.00
28312;BME280;15572;48.810;9.148;2023-04-30T02:22:41;98417.91;;;11.04;100.00
28312;BME280;15572;48.810;9.148;2023-04-30T02:27:38;98414.38;;;11.03;100.00
28312;BME280;15572;48.810;9.148;2023-04-30T02:32:35;98421.22;;;10.99;100.00
28312;BME280;15572;48.810;9.148;2023-04-30T02:37:31;98427.84;;;10.96;100.00
28312;BME280;15572;48.810;9.148;2023-04-30T02:42:29;98428.31;;;11.00;100.00
28312;BME280;15572;48.810;9.148;2023-04-30T02:47:26;98433.34;;;11.03;100.00
28312;BME280;15572;48.810;9.148;2023-04-30T02:52:23;98421.66;;;11.03;100.00
28312;BME280;15572;48.810;9.148;2023-04-30T02:57:20;98425.41;;;11.02;100.00
28312;BME280;15572;48.810;9.148;2023-04-30T03:02:18;98423.84;;;10.92;100.00
28312;BME280;15572;48.810;9.148;2023-04-30T03:07:15;98422.09;;;10.85;100.00
28312;BME280;15572;48.810;9.148;2023-04-30T03:12:12;98412.06;;;10.79;100.00
28312;BME280;15572;48.810;9.148;2023-04-30T03:17:08;98419.72;;;10.75;100.00
28312;BME280;15572;48.810;9.148;2023-04-30T03:22:06;98427.84;;;10.75;100.00
28312;BME280;15572;48.810;9.148;2023-04-30T03:27:03;98415.31;;;10.74;100.00
28312;BME280;15572;48.810;9.148;2023-04-30T03:31:59;98421.97;;;10.72;100.00
28312;BME280;15572;48.810;9.148;2023-04-30T03:36:56;98430.47;;;10.69;100.00
28312;BME280;15572;48.810;9.148;2023-04-30T03:41:53;98419.59;;;10.62;100.00
28312;BME280;15572;48.810;9.148;2023-04-30T03:46:50;98422.03;;;10.57;100.00
28312;BME280;15572;48.810;9.148;2023-04-30T03:51:47;98424.47;;;10.52;100.00
28312;BME280;15572;48.810;9.148;2023-04-30T03:56:43;98428.19;;;10.51;100.00
28312;BME280;15572;48.810;9.148;2023-04-30T04:01:41;98424.19;;;10.47;100.00
28312;BME280;15572;48.810;9.148;2023-04-30T04:06:37;98421.03;;;10.43;100.00
28312;BME280;15572;48.810;9.148;2023-04-30T04:11:34;98430.38;;;10.41;100.00
28312;BME280;15572;48.810;9.148;2023-04-30T04:16:30;98432.25;;;10.40;100.00
28312;BME280;15572;48.810;9.148;2023-04-30T04:21:28;98439.34;;;10.41;100.00
28312;BME280;15572;48.810;9.148;2023-04-30T04:26:25;98443.50;;;10.44;100.00
28312;BME280;15572;48.810;9.148;2023-04-30T04:31:23;98443.50;;;10.44;100.00
28312;BME280;15572;48.810;9.148;2023-04-30T04:36:20;98446.66;;;10.47;100.00
28312;BME280;15572;48.810;9.148;2023-04-30T04:41:19;98442.31;;;10.46;100.00
28312;BME280;15572;48.810;9.148;2023-04-30T04:46:15;98449.84;;;10.51;100.00
28312;BME280;15572;48.810;9.148;2023-04-30T04:51:12;98440.31;;;10.55;100.00
28312;BME280;15572;48.810;9.148;2023-04-30T04:56:09;98446.19;;;10.59;100.00
28312;BME280;15572;48.810;9.148;2023-04-30T05:01:07;98446.25;;;10.65;100.00
28312;BME280;15572;48.810;9.148;2023-04-30T05:06:04;98443.38;;;10.67;100.00
28312;BME280;15572;48.810;9.148;2023-04-30T05:11:00;98450.91;;;10.71;100.00
28312;BME280;15572;48.810;9.148;2023-04-30T05:15:57;98443.25;;;10.75;100.00
28312;BME280;15572;48.810;9.148;2023-04-30T05:21:04;98442.22;;;10.76;100.00
28312;BME280;15572;48.810;9.148;2023-04-30T05:26:15;98449.41;;;10.83;100.00
28312;BME280;15572;48.810;9.148;2023-04-30T05:31:11;98450.75;;;10.94;100.00
28312;BME280;15572;48.810;9.148;2023-04-30T05:36:09;98453.97;;;11.04;100.00
28312;BME280;15572;48.810;9.148;2023-04-30T05:41:06;98453.66;;;11.14;100.00
28312;BME280;15572;48.810;9.148;2023-04-30T05:46:02;98454.41;;;11.29;100.00
28312;BME280;15572;48.810;9.148;2023-04-30T05:50:59;98450.28;;;11.33;100.00
28312;BME280;15572;48.810;9.148;2023-04-30T05:55:57;98455.31;;;11.36;100.00
28312;BME280;15572;48.810;9.148;2023-04-30T06:00:54;98449.91;;;11.36;100.00
28312;BME280;15572;48.810;9.148;2023-04-30T06:06:01;98456.00;;;11.45;100.00
28312;BME280;15572;48.810;9.148;2023-04-30T06:17:00;98454.53;;;11.70;100.00
28312;BME280;15572;48.810;9.148;2023-04-30T06:21:57;98463.22;;;11.80;100.00
28312;BME280;15572;48.810;9.148;2023-04-30T06:26:53;98459.91;;;11.85;100.00
28312;BME280;15572;48.810;9.148;2023-04-30T06:31:50;98453.53;;;11.99;100.00
28312;BME280;15572;48.810;9.148;2023-04-30T06:36:48;98462.28;;;11.94;100.00
28312;BME280;15572;48.810;9.148;2023-04-30T06:47:54;98450.91;;;12.18;100.00
28312;BME280;15572;48.810;9.148;2023-04-30T06:53:06;98463.78;;;12.38;100.00
28312;BME280;15572;48.810;9.148;2023-04-30T06:58:02;98462.75;;;12.45;100.00
28312;BME280;15572;48.810;9.148;2023-04-30T07:03:00;98469.53;;;12.62;100.00
28312;BME280;15572;48.810;9.148;2023-04-30T07:07:59;98461.84;;;12.79;100.00
28312;BME280;15572;48.810;9.148;2023-04-30T07:12:57;98460.63;;;12.95;100.00
28312;BME280;15572;48.810;9.148;2023-04-30T07:17:53;98457.09;;;13.01;100.00
28312;BME280;15572;48.810;9.148;2023-04-30T07:22:50;98454.19;;;13.09;100.00
28312;BME280;15572;48.810;9.148;2023-04-30T07:27:46;98454.66;;;13.13;99.70
28312;BME280;15572;48.810;9.148;2023-04-30T07:32:46;98447.94;;;13.15;99.08
28312;BME280;15572;48.810;9.148;2023-04-30T07:37:43;98452.78;;;13.13;98.14
28312;BME280;15572;48.810;9.148;2023-04-30T07:42:39;98448.13;;;13.07;92.86
28312;BME280;15572;48.810;9.148;2023-04-30T07:47:36;98446.28;;;13.14;95.29
28312;BME280;15572;48.810;9.148;2023-04-30T07:52:34;98434.19;;;13.23;96.61
28312;BME280;15572;48.810;9.148;2023-04-30T07:57:30;98433.75;;;13.26;95.99
28312;BME280;15572;48.810;9.148;2023-04-30T08:02:27;98429.78;;;13.29;95.23
28312;BME280;15572;48.810;9.148;2023-04-30T08:07:23;98423.72;;;13.33;94.51
28312;BME280;15572;48.810;9.148;2023-04-30T08:12:21;98422.66;;;13.41;93.50
28312;BME280;15572;48.810;9.148;2023-04-30T08:17:18;98432.50;;;13.48;86.86
28312;BME280;15572;48.810;9.148;2023-04-30T08:22:14;98438.38;;;13.65;87.55
28312;BME280;15572;48.810;9.148;2023-04-30T08:27:11;98436.91;;;13.69;86.85
28312;BME280;15572;48.810;9.148;2023-04-30T08:32:08;98428.53;;;13.77;85.68
28312;BME280;15572;48.810;9.148;2023-04-30T08:37:05;98433.69;;;14.05;84.54
28312;BME280;15572;48.810;9.148;2023-04-30T08:42:03;98427.56;;;14.36;77.42
28312;BME280;15572;48.810;9.148;2023-04-30T08:47:03;98435.00;;;14.60;73.47
28312;BME280;15572;48.810;9.148;2023-04-30T08:52:04;98432.59;;;14.84;72.48
28312;BME280;15572;48.810;9.148;2023-04-30T08:57:00;98439.00;;;14.96;72.67
28312;BME280;15572;48.810;9.148;2023-04-30T09:01:59;98432.88;;;15.07;71.56
28312;BME280;15572;48.810;9.148;2023-04-30T09:06:55;98435.56;;;15.13;64.43
28312;BME280;15572;48.810;9.148;2023-04-30T09:12:10;98429.03;;;15.21;66.44
28312;BME280;15572;48.810;9.148;2023-04-30T09:17:07;98436.22;;;15.09;64.95
28312;BME280;15572;48.810;9.148;2023-04-30T09:22:18;98440.34;;;15.18;66.32
28312;BME280;15572;48.810;9.148;2023-04-30T09:27:17;98436.09;;;15.29;64.49
28312;BME280;15572;48.810;9.148;2023-04-30T09:32:14;98437.16;;;15.59;63.04
28312;BME280;15572;48.810;9.148;2023-04-30T09:37:10;98416.81;;;15.80;61.60
28312;BME280;15572;48.810;9.148;2023-04-30T09:42:08;98429.53;;;16.11;60.28
28312;BME280;15572;48.810;9.148;2023-04-30T09:47:11;98421.47;;;16.16;57.73
28312;BME280;15572;48.810;9.148;2023-04-30T09:52:09;98427.09;;;16.21;57.60
28312;BME280;15572;48.810;9.148;2023-04-30T09:57:09;98420.88;;;16.32;57.08
28312;BME280;15572;48.810;9.148;2023-04-30T10:02:06;98422.16;;;16.29;56.88
28312;BME280;15572;48.810;9.148;2023-04-30T10:07:08;98422.31;;;16.16;53.48
28312;BME280;15572;48.810;9.148;2023-04-30T10:12:07;98422.00;;;16.24;55.42
28312;BME280;15572;48.810;9.148;2023-04-30T10:17:12;98414.59;;;16.13;56.74
28312;BME280;15572;48.810;9.148;2023-04-30T10:22:11;98422.28;;;15.98;53.06
28312;BME280;15572;48.810;9.148;2023-04-30T10:27:08;98410.94;;;16.19;53.83
28312;BME280;15572;48.810;9.148;2023-04-30T10:32:05;98404.13;;;16.28;50.66
28312;BME280;15572;48.810;9.148;2023-04-30T10:37:05;98404.81;;;16.24;52.77
28312;BME280;15572;48.810;9.148;2023-04-30T10:42:05;98403.72;;;16.43;53.90
28312;BME280;15572;48.810;9.148;2023-04-30T10:47:03;98406.75;;;16.53;53.96
28312;BME280;15572;48.810;9.148;2023-04-30T10:52:01;98407.78;;;16.59;53.73
28312;BME280;15572;48.810;9.148;2023-04-30T10:57:10;98401.88;;;16.73;53.51
28312;BME280;15572;48.810;9.148;2023-04-30T11:02:09;98390.66;;;16.81;51.39
28312;BME280;15572;48.810;9.148;2023-04-30T11:07:08;98393.03;;;16.90;52.41
28312;BME280;15572;48.810;9.148;2023-04-30T11:12:11;98396.44;;;17.15;52.17
28312;BME280;15572;48.810;9.148;2023-04-30T11:17:09;98383.78;;;17.32;51.64
28312;BME280;15572;48.810;9.148;2023-04-30T11:22:21;98380.72;;;17.40;51.40
28312;BME280;15572;48.810;9.148;2023-04-30T11:27:23;98377.28;;;17.56;51.04
28312;BME280;15572;48.810;9.148;2023-04-30T11:32:23;98374.69;;;17.73;50.28
28312;BME280;15572;48.810;9.148;2023-04-30T11:37:33;98376.31;;;17.51;50.18
28312;BME280;15572;48.810;9.148;2023-04-30T11:42:32;98373.72;;;17.56;50.73
28312;BME280;15572;48.810;9.148;2023-04-30T11:47:38;98368.69;;;17.53;51.58
28312;BME280;15572;48.810;9.148;2023-04-30T11:52:34;98363.31;;;17.23;50.38
28312;BME280;15572;48.810;9.148;2023-04-30T11:57:41;98359.25;;;17.14;50.17
28312;BME280;15572;48.810;9.148;2023-04-30T12:02:38;98362.03;;;17.49;50.11
28312;BME280;15572;48.810;9.148;2023-04-30T12:07:34;98358.00;;;17.98;49.20
28312;BME280;15572;48.810;9.148;2023-04-30T12:12:31;98352.34;;;18.28;49.04
28312;BME280;15572;48.810;9.148;2023-04-30T12:17:32;98349.28;;;18.24;49.15
28312;BME280;15572;48.810;9.148;2023-04-30T12:22:29;98339.69;;;17.98;48.98
28312;BME280;15572;48.810;9.148;2023-04-30T12:27:25;98347.56;;;17.60;48.36
28312;BME280;15572;48.810;9.148;2023-04-30T12:32:22;98350.25;;;17.48;48.90
28312;BME280;15572;48.810;9.148;2023-04-30T12:37:20;98350.59;;;17.40;50.16
28312;BME280;15572;48.810;9.148;2023-04-30T12:42:17;98346.56;;;17.43;49.78
28312;BME280;15572;48.810;9.148;2023-04-30T12:47:14;98350.38;;;17.53;49.95
28312;BME280;15572;48.810;9.148;2023-04-30T12:52:12;98345.03;;;17.70;49.89
28312;BME280;15572;48.810;9.148;2023-04-30T12:57:11;98332.78;;;17.61;50.01
28312;BME280;15572;48.810;9.148;2023-04-30T13:02:09;98324.59;;;17.73;49.93
28312;BME280;15572;48.810;9.148;2023-04-30T13:07:06;98323.88;;;17.65;49.62
28312;BME280;15572;48.810;9.148;2023-04-30T13:12:04;98316.94;;;17.75;49.75
28312;BME280;15572;48.810;9.148;2023-04-30T13:17:02;98307.03;;;17.97;49.35
28312;BME280;15572;48.810;9.148;2023-04-30T13:22:00;98306.41;;;18.18;49.07
28312;BME280;15572;48.810;9.148;2023-04-30T13:26:57;98298.25;;;18.35;48.84
28312;BME280;15572;48.810;9.148;2023-04-30T13:31:54;98296.97;;;18.26;49.11
28312;BME280;15572;48.810;9.148;2023-04-30T13:36:52;98292.44;;;18.60;48.47
28312;BME280;15572;48.810;9.148;2023-04-30T13:41:48;98298.63;;;19.12;47.51
28312;BME280;15572;48.810;9.148;2023-04-30T13:46:45;98293.56;;;19.54;45.74
28312;BME280;15572;48.810;9.148;2023-04-30T13:51:41;98286.72;;;19.56;45.77
28312;BME280;15572;48.810;9.148;2023-04-30T13:56:39;98280.56;;;19.32;46.38
28312;BME280;15572;48.810;9.148;2023-04-30T14:01:36;98284.91;;;19.12;46.97
28312;BME280;15572;48.810;9.148;2023-04-30T14:06:32;98281.47;;;18.88;46.34
28312;BME280;15572;48.810;9.148;2023-04-30T14:11:29;98282.31;;;19.05;45.54
28312;BME280;15572;48.810;9.148;2023-04-30T14:16:26;98272.25;;;18.94;45.62
28312;BME280;15572;48.810;9.148;2023-04-30T14:21:24;98268.72;;;18.82;45.44
28312;BME280;15572;48.810;9.148;2023-04-30T14:26:21;98263.94;;;18.89;45.13
28312;BME280;15572;48.810;9.148;2023-04-30T14:31:18;98256.31;;;18.91;45.28
28312;BME280;15572;48.810;9.148;2023-04-30T14:36:16;98253.19;;;18.87;45.59
28312;BME280;15572;48.810;9.148;2023-04-30T14:41:12;98243.47;;;18.97;46.05
28312;BME280;15572;48.810;9.148;2023-04-30T14:46:09;98238.13;;;18.57;46.48
28312;BME280;15572;48.810;9.148;2023-04-30T14:51:05;98231.47;;;18.24;46.36
28312;BME280;15572;48.810;9.148;2023-04-30T14:56:04;98232.38;;;18.30;46.41
28312;BME280;15572;48.810;9.148;2023-04-30T15:01:01;98233.72;;;18.56;46.70
28312;BME280;15572;48.810;9.148;2023-04-30T15:05:58;98232.59;;;18.68;46.90
28312;BME280;15572;48.810;9.148;2023-04-30T15:10:54;98222.19;;;18.70;46.45
28312;BME280;15572;48.810;9.148;2023-04-30T15:15:52;98214.97;;;18.81;45.75
28312;BME280;15572;48.810;9.148;2023-04-30T15:20:49;98199.78;;;18.73;45.76
28312;BME280;15572;48.810;9.148;2023-04-30T15:25:46;98209.91;;;18.73;45.11
28312;BME280;15572;48.810;9.148;2023-04-30T15:30:42;98200.59;;;18.74;44.89
28312;BME280;15572;48.810;9.148;2023-04-30T15:35:40;98202.75;;;18.88;44.80
28312;BME280;15572;48.810;9.148;2023-04-30T15:40:37;98203.16;;;18.80;44.77
28312;BME280;15572;48.810;9.148;2023-04-30T15:45:33;98210.38;;;18.70;45.44
28312;BME280;15572;48.810;9.148;2023-04-30T15:50:30;98205.56;;;18.60;45.83
28312;BME280;15572;48.810;9.148;2023-04-30T15:55:28;98198.16;;;18.32;46.41
28312;BME280;15572;48.810;9.148;2023-04-30T16:00:24;98198.75;;;18.34;46.84
28312;BME280;15572;48.810;9.148;2023-04-30T16:05:22;98185.03;;;18.18;46.60
28312;BME280;15572;48.810;9.148;2023-04-30T16:10:19;98184.97;;;18.01;46.72
28312;BME280;15572;48.810;9.148;2023-04-30T16:15:17;98191.09;;;17.91;46.91
28312;BME280;15572;48.810;9.148;2023-04-30T16:20:13;98191.72;;;17.82;46.31
28312;BME280;15572;48.810;9.148;2023-04-30T16:25:10;98179.00;;;17.76;46.72
28312;BME280;15572;48.810;9.148;2023-04-30T16:30:07;98175.56;;;17.68;47.20
28312;BME280;15572;48.810;9.148;2023-04-30T16:35:06;98175.81;;;17.67;47.87
28312;BME280;15572;48.810;9.148;2023-04-30T16:40:04;98171.19;;;17.44;48.25
28312;BME280;15572;48.810;9.148;2023-04-30T16:45:01;98168.34;;;17.27;48.39
28312;BME280;15572;48.810;9.148;2023-04-30T16:49:58;98160.03;;;17.22;48.88
28312;BME280;15572;48.810;9.148;2023-04-30T16:54:56;98155.53;;;17.16;49.35
28312;BME280;15572;48.810;9.148;2023-04-30T16:59:52;98150.56;;;17.02;49.38
28312;BME280;15572;48.810;9.148;2023-04-30T17:04:49;98152.81;;;16.93;49.63
28312;BME280;15572;48.810;9.148;2023-04-30T17:14:52;98152.09;;;16.86;49.95
28312;BME280;15572;48.810;9.148;2023-04-30T17:19:48;98162.91;;;16.81;50.16
28312;BME280;15572;48.810;9.148;2023-04-30T17:24:46;98160.06;;;16.76;50.74
28312;BME280;15572;48.810;9.148;2023-04-30T17:29:43;98154.59;;;16.64;51.01
28312;BME280;15572;48.810;9.148;2023-04-30T17:34:41;98157.19;;;16.59;51.58
28312;BME280;15572;48.810;9.148;2023-04-30T17:39:42;98161.31;;;16.50;51.83
28312;BME280;15572;48.810;9.148;2023-04-30T17:44:39;98164.59;;;16.40;51.93
28312;BME280;15572;48.810;9.148;2023-04-30T17:49:35;98169.44;;;16.27;52.43
28312;BME280;15572;48.810;9.148;2023-04-30T17:54:36;98161.81;;;16.17;53.04
28312;BME280;15572;48.810;9.148;2023-04-30T17:59:58;98163.53;;;16.00;53.49
28312;BME280;15572;48.810;9.148;2023-04-30T18:04:54;98162.66;;;15.88;54.02
28312;BME280;15572;48.810;9.148;2023-04-30T18:09:53;98172.22;;;15.79;54.39
28312;BME280;15572;48.810;9.148;2023-04-30T18:14:51;98163.00;;;15.62;54.90
28312;BME280;15572;48.810;9.148;2023-04-30T18:19:48;98173.41;;;15.53;55.29
28312;BME280;15572;48.810;9.148;2023-04-30T18:24:44;98167.91;;;15.35;55.75
28312;BME280;15572;48.810;9.148;2023-04-30T18:29:42;98172.44;;;15.23;56.25
28312;BME280;15572;48.810;9.148;2023-04-30T18:34:38;98180.78;;;15.09;56.75
28312;BME280;15572;48.810;9.148;2023-04-30T18:39:40;98166.28;;;14.91;57.67
28312;BME280;15572;48.810;9.148;2023-04-30T18:44:42;98174.38;;;14.79;58.54
28312;BME280;15572;48.810;9.148;2023-04-30T18:49:38;98169.66;;;14.68;59.42
28312;BME280;15572;48.810;9.148;2023-04-30T18:54:35;98170.38;;;14.57;60.08
28312;BME280;15572;48.810;9.148;2023-04-30T18:59:32;98170.09;;;14.40;61.01
28312;BME280;15572;48.810;9.148;2023-04-30T19:10:46;98172.69;;;13.90;66.97
28312;BME280;15572;48.810;9.148;2023-04-30T19:15:57;98174.66;;;13.77;68.35
28312;BME280;15572;48.810;9.148;2023-04-30T19:20:55;98183.16;;;13.49;69.42
28312;BME280;15572;48.810;9.148;2023-04-30T19:25:56;98190.19;;;13.12;73.03
28312;BME280;15572;48.810;9.148;2023-04-30T19:36:16;98192.28;;;12.57;74.51
28312;BME280;15572;48.810;9.148;2023-04-30T19:41:19;98191.69;;;12.49;74.14
28312;BME280;15572;48.810;9.148;2023-04-30T19:46:32;98189.78;;;12.43;76.28
28312;BME280;15572;48.810;9.148;2023-04-30T19:51:42;98190.22;;;12.33;77.11
28312;BME280;15572;48.810;9.148;2023-04-30T19:56:42;98192.50;;;12.23;79.73
28312;BME280;15572;48.810;9.148;2023-04-30T20:01:38;98186.63;;;12.06;82.03
28312;BME280;15572;48.810;9.148;2023-04-30T20:12:06;98186.44;;;11.60;86.35
28312;BME280;15572;48.810;9.148;2023-04-30T20:17:06;98181.66;;;11.56;86.18
28312;BME280;15572;48.810;9.148;2023-04-30T20:22:26;98185.34;;;11.42;89.00
